sensor_id;sensor_type;location;lat;lon;timestamp;temperature;humidity
49549;DHT22;35450;44.518;7.466;2023-12-20T07:30:11;8.50;78.40
49549;DHT22;35450;44.518;7.466;2023-12-20T07:33:15;8.40;79.00
49549;DHT22;35450;44.518;7.466;2023-12-20T07:36:20;8.50;78.30
49549;DHT22;35450;44.518;7.466;2023-12-20T07:39:24;8.60;76.20
49549;DHT22;35450;44.518;7.466;2023-12-20T07:42:28;8.70;75.70
49549;DHT22;35450;44.518;7.466;2023-12-20T07:45:33;8.70;76.10
49549;DHT22;35450;44.518;7.466;2023-12-20T07:48:38;8.80;77.00
49549;DHT22;35450;44.518;7.466;2023-12-20T07:51:43;8.70;79.10
49549;DHT22;35450;44.518;7.466;2023-12-20T07:54:47;8.70;78.40
49549;DHT22;35450;44.518;7.466;2023-12-20T07:57:51;8.70;76.10
49549;DHT22;35450;44.518;7.466;2023-12-20T08:00:55;8.80;74.60
49549;DHT22;35450;44.518;7.466;2023-12-20T08:04:00;8.80;77.90
49549;DHT22;35450;44.518;7.466;2023-12-20T08:07:04;8.60;79.40
49549;DHT22;35450;44.518;7.466;2023-12-20T08:10:09;8.60;78.00
49549;DHT22;35450;44.518;7.466;2023-12-20T08:13:13;8.70;76.60
49549;DHT22;35450;44.518;7.466;2023-12-20T08:16:17;8.80;77.00
49549;DHT22;35450;44.518;7.466;2023-12-20T08:19:21;8.90;76.30
49549;DHT22;35450;44.518;7.466;2023-12-20T08:22:25;8.90;77.10
49549;DHT22;35450;44.518;7.466;2023-12-20T08:25:29;8.90;77.80
49549;DHT22;35450;44.518;7.466;2023-12-20T08:28:33;8.90;78.20
49549;DHT22;35450;44.518;7.466;2023-12-20T08:31:38;8.90;78.20
49549;DHT22;35450;44.518;7.466;2023-12-20T08:34:42;8.90;79.20
49549;DHT22;35450;44.518;7.466;2023-12-20T08:37:46;8.90;81.20
49549;DHT22;35450;44.518;7.466;2023-12-20T08:40:50;8.90;81.00
49549;DHT22;35450;44.518;7.466;2023-12-20T08:43:54;8.90;81.10
49549;DHT22;35450;44.518;7.466;2023-12-20T08:46:58;9.00;78.10
49549;DHT22;35450;44.518;7.466;2023-12-20T08:50:03;8.90;80.90
49549;DHT22;35450;44.518;7.466;2023-12-20T08:53:07;8.80;81.90
49549;DHT22;35450;44.518;7.466;2023-12-20T08:56:11;8.80;83.80
49549;DHT22;35450;44.518;7.466;2023-12-20T08:59:16;8.80;81.90
49549;DHT22;35450;44.518;7.466;2023-12-20T09:02:20;8.90;79.90
49549;DHT22;35450;44.518;7.466;2023-12-20T09:05:24;9.00;80.50
49549;DHT22;35450;44.518;7.466;2023-12-20T09:08:28;9.00;80.00
49549;DHT22;35450;44.518;7.466;2023-12-20T09:11:32;9.10;80.00
49549;DHT22;35450;44.518;7.466;2023-12-20T09:14:36;9.20;80.00
49549;DHT22;35450;44.518;7.466;2023-12-20T09:17:40;9.20;81.80
49549;DHT22;35450;44.518;7.466;2023-12-20T09:20:45;9.20;79.50
49549;DHT22;35450;44.518;7.466;2023-12-20T09:23:49;9.30;81.20
49549;DHT22;35450;44.518;7.466;2023-12-20T09:26:54;9.30;80.40
49549;DHT22;35450;44.518;7.466;2023-12-20T09:29:58;9.30;80.40
49549;DHT22;35450;44.518;7.466;2023-12-20T09:33:02;9.30;82.60
49549;DHT22;35450;44.518;7.466;2023-12-20T09:36:06;9.30;84.10
49549;DHT22;35450;44.518;7.466;2023-12-20T09:39:10;9.30;82.50
49549;DHT22;35450;44.518;7.466;2023-12-20T09:42:19;9.40;81.40
49549;DHT22;35450;44.518;7.466;2023-12-20T09:45:26;9.50;80.20
49549;DHT22;35450;44.518;7.466;2023-12-20T09:48:31;9.50;79.60
49549;DHT22;35450;44.518;7.466;2023-12-20T09:51:36;9.60;80.00
49549;DHT22;35450;44.518;7.466;2023-12-20T09:54:41;9.60;80.40
49549;DHT22;35450;44.518;7.466;2023-12-20T09:57:46;9.60;78.60
49549;DHT22;35450;44.518;7.466;2023-12-20T10:00:50;9.60;77.80
49549;DHT22;35450;44.518;7.466;2023-12-20T10:03:56;9.70;76.70
49549;DHT22;35450;44.518;7.466;2023-12-20T10:07:02;9.70;76.30
49549;DHT22;35450;44.518;7.466;2023-12-20T10:10:10;9.70;75.20
49549;DHT22;35450;44.518;7.466;2023-12-20T10:13:17;9.70;75.30
49549;DHT22;35450;44.518;7.466;2023-12-20T10:16:25;9.70;74.40
49549;DHT22;35450;44.518;7.466;2023-12-20T10:19:30;9.80;74.80
49549;DHT22;35450;44.518;7.466;2023-12-20T10:22:35;9.80;74.10
49549;DHT22;35450;44.518;7.466;2023-12-20T10:25:39;9.90;73.30
49549;DHT22;35450;44.518;7.466;2023-12-20T10:28:45;9.90;72.70
49549;DHT22;35450;44.518;7.466;2023-12-20T10:31:49;10.00;71.90
49549;DHT22;35450;44.518;7.466;2023-12-20T10:34:54;10.10;71.90
49549;DHT22;35450;44.518;7.466;2023-12-20T10:38:03;10.10;71.70
49549;DHT22;35450;44.518;7.466;2023-12-20T10:41:10;10.10;72.40
49549;DHT22;35450;44.518;7.466;2023-12-20T10:44:15;10.20;72.40
49549;DHT22;35450;44.518;7.466;2023-12-20T10:47:20;10.30;71.90
49549;DHT22;35450;44.518;7.466;2023-12-20T10:50:25;10.30;70.90
49549;DHT22;35450;44.518;7.466;2023-12-20T10:53:30;10.40;70.60
49549;DHT22;35450;44.518;7.466;2023-12-20T10:56:36;10.40;70.50
49549;DHT22;35450;44.518;7.466;2023-12-20T10:59:41;10.40;70.10
49549;DHT22;35450;44.518;7.466;2023-12-20T11:02:49;10.50;70.10
49549;DHT22;35450;44.518;7.466;2023-12-20T11:06:07;10.50;70.10
49549;DHT22;35450;44.518;7.466;2023-12-20T11:09:28;10.60;72.40
49549;DHT22;35450;44.518;7.466;2023-12-20T11:12:42;10.70;72.90
49549;DHT22;35450;44.518;7.466;2023-12-20T11:15:50;10.70;73.80
49549;DHT22;35450;44.518;7.466;2023-12-20T11:18:54;10.70;76.10
49549;DHT22;35450;44.518;7.466;2023-12-20T11:21:58;10.50;79.00
49549;DHT22;35450;44.518;7.466;2023-12-20T11:25:10;10.60;78.70
49549;DHT22;35450;44.518;7.466;2023-12-20T11:28:15;10.60;78.50
49549;DHT22;35450;44.518;7.466;2023-12-20T11:31:21;10.60;79.40
49549;DHT22;35450;44.518;7.466;2023-12-20T11:34:32;10.70;79.90
49549;DHT22;35450;44.518;7.466;2023-12-20T11:37:38;10.60;80.00
49549;DHT22;35450;44.518;7.466;2023-12-20T11:40:43;10.70;79.80
49549;DHT22;35450;44.518;7.466;2023-12-20T11:43:47;10.70;79.40
49549;DHT22;35450;44.518;7.466;2023-12-20T11:46:51;10.80;79.70
49549;DHT22;35450;44.518;7.466;2023-12-20T11:49:57;10.80;79.60
49549;DHT22;35450;44.518;7.466;2023-12-20T11:53:04;10.80;81.60
49549;DHT22;35450;44.518;7.466;2023-12-20T11:56:08;10.80;82.30
49549;DHT22;35450;44.518;7.466;2023-12-20T11:59:13;10.70;81.20
49549;DHT22;35450;44.518;7.466;2023-12-20T12:02:17;10.70;80.60
49549;DHT22;35450;44.518;7.466;2023-12-20T12:05:21;10.80;80.60
49549;DHT22;35450;44.518;7.466;2023-12-20T12:08:25;10.80;80.80
49549;DHT22;35450;44.518;7.466;2023-12-20T12:11:29;10.70;80.80
49549;DHT22;35450;44.518;7.466;2023-12-20T12:14:34;10.70;80.60
49549;DHT22;35450;44.518;7.466;2023-12-20T12:17:40;10.70;82.00
49549;DHT22;35450;44.518;7.466;2023-12-20T12:20:44;10.70;81.80
49549;DHT22;35450;44.518;7.466;2023-12-20T12:23:49;10.70;81.70
49549;DHT22;35450;44.518;7.466;2023-12-20T12:26:53;10.70;81.60
49549;DHT22;35450;44.518;7.466;2023-12-20T12:30:04;10.70;82.40
49549;DHT22;35450;44.518;7.466;2023-12-20T12:33:11;10.70;83.00
49549;DHT22;35450;44.518;7.466;2023-12-20T12:36:16;10.60;83.60
49549;DHT22;35450;44.518;7.466;2023-12-20T12:39:23;10.70;84.40
49549;DHT22;35450;44.518;7.466;2023-12-20T12:42:29;10.70;82.10
49549;DHT22;35450;44.518;7.466;2023-12-20T12:45:33;10.70;82.40
49549;DHT22;35450;44.518;7.466;2023-12-20T12:48:37;10.70;83.20
49549;DHT22;35450;44.518;7.466;2023-12-20T12:51:41;10.70;83.40
49549;DHT22;35450;44.518;7.466;2023-12-20T12:54:44;10.70;82.00
49549;DHT22;35450;44.518;7.466;2023-12-20T12:57:49;10.60;82.90
49549;DHT22;35450;44.518;7.466;2023-12-20T13:00:54;10.60;84.20
49549;DHT22;35450;44.518;7.466;2023-12-20T13:03:59;10.70;85.40
49549;DHT22;35450;44.518;7.466;2023-12-20T13:07:05;10.80;86.70
49549;DHT22;35450;44.518;7.466;2023-12-20T13:10:09;10.80;86.50
49549;DHT22;35450;44.518;7.466;2023-12-20T13:13:14;10.80;85.50
49549;DHT22;35450;44.518;7.466;2023-12-20T13:16:19;10.80;86.30
49549;DHT22;35450;44.518;7.466;2023-12-20T13:19:25;10.80;86.40
49549;DHT22;35450;44.518;7.466;2023-12-20T13:22:30;10.80;86.10
49549;DHT22;35450;44.518;7.466;2023-12-20T13:25:34;10.90;86.20
49549;DHT22;35450;44.518;7.466;2023-12-20T13:28:39;10.90;85.80
49549;DHT22;35450;44.518;7.466;2023-12-20T13:31:44;10.90;84.50
49549;DHT22;35450;44.518;7.466;2023-12-20T13:34:48;10.90;84.90
49549;DHT22;35450;44.518;7.466;2023-12-20T13:37:52;10.90;84.10
49549;DHT22;35450;44.518;7.466;2023-12-20T13:40:56;10.90;82.10
49549;DHT22;35450;44.518;7.466;2023-12-20T13:44:03;11.00;82.10
49549;DHT22;35450;44.518;7.466;2023-12-20T13:47:07;11.00;82.40
49549;DHT22;35450;44.518;7.466;2023-12-20T13:50:11;11.10;82.90
49549;DHT22;35450;44.518;7.466;2023-12-20T13:53:15;11.20;81.40
49549;DHT22;35450;44.518;7.466;2023-12-20T13:56:20;11.20;81.10
49549;DHT22;35450;44.518;7.466;2023-12-20T13:59:25;11.20;81.30
49549;DHT22;35450;44.518;7.466;2023-12-20T14:02:30;11.20;81.40
49549;DHT22;35450;44.518;7.466;2023-12-20T14:05:34;11.20;81.60
49549;DHT22;35450;44.518;7.466;2023-12-20T14:08:39;11.30;82.70
49549;DHT22;35450;44.518;7.466;2023-12-20T14:11:43;11.30;82.90
49549;DHT22;35450;44.518;7.466;2023-12-20T14:14:47;11.30;83.30
49549;DHT22;35450;44.518;7.466;2023-12-20T14:17:51;11.40;83.30
49549;DHT22;35450;44.518;7.466;2023-12-20T14:20:56;11.40;83.50
49549;DHT22;35450;44.518;7.466;2023-12-20T14:24:00;11.40;83.60
49549;DHT22;35450;44.518;7.466;2023-12-20T14:27:04;11.50;83.70
49549;DHT22;35450;44.518;7.466;2023-12-20T14:30:08;11.50;84.30
49549;DHT22;35450;44.518;7.466;2023-12-20T14:33:12;11.50;84.50
49549;DHT22;35450;44.518;7.466;2023-12-20T14:36:17;11.50;84.40
49549;DHT22;35450;44.518;7.466;2023-12-20T14:39:21;11.50;84.10
49549;DHT22;35450;44.518;7.466;2023-12-20T14:42:26;11.50;83.70
49549;DHT22;35450;44.518;7.466;2023-12-20T14:45:30;11.50;83.50
49549;DHT22;35450;44.518;7.466;2023-12-20T14:48:34;11.60;83.70
49549;DHT22;35450;44.518;7.466;2023-12-20T14:51:38;11.60;83.90
49549;DHT22;35450;44.518;7.466;2023-12-20T14:54:43;11.70;85.20
49549;DHT22;35450;44.518;7.466;2023-12-20T14:57:47;11.50;84.90
49549;DHT22;35450;44.518;7.466;2023-12-20T15:00:51;11.50;85.00
49549;DHT22;35450;44.518;7.466;2023-12-20T15:03:55;11.50;85.00
49549;DHT22;35450;44.518;7.466;2023-12-20T15:07:00;11.50;84.70
49549;DHT22;35450;44.518;7.466;2023-12-20T15:10:05;11.40;84.60
49549;DHT22;35450;44.518;7.466;2023-12-20T15:13:09;11.20;84.10
49549;DHT22;35450;44.518;7.466;2023-12-20T15:16:13;11.10;83.60
49549;DHT22;35450;44.518;7.466;2023-12-20T15:19:17;11.00;82.60
49549;DHT22;35450;44.518;7.466;2023-12-20T15:22:21;11.10;83.40
49549;DHT22;35450;44.518;7.466;2023-12-20T15:25:25;11.00;83.60
49549;DHT22;35450;44.518;7.466;2023-12-20T15:28:32;10.80;84.50
49549;DHT22;35450;44.518;7.466;2023-12-20T15:31:41;10.70;84.40
49549;DHT22;35450;44.518;7.466;2023-12-20T15:34:45;10.60;82.60
49549;DHT22;35450;44.518;7.466;2023-12-20T15:37:49;10.50;82.10
49549;DHT22;35450;44.518;7.466;2023-12-20T15:40:58;10.50;82.30
49549;DHT22;35450;44.518;7.466;2023-12-20T15:44:02;10.40;82.60
49549;DHT22;35450;44.518;7.466;2023-12-20T15:47:06;10.40;82.30
49549;DHT22;35450;44.518;7.466;2023-12-20T15:50:11;10.40;83.00
49549;DHT22;35450;44.518;7.466;2023-12-20T15:53:15;10.30;84.40
49549;DHT22;35450;44.518;7.466;2023-12-20T15:56:22;10.30;84.70
49549;DHT22;35450;44.518;7.466;2023-12-20T15:59:26;10.20;84.50
49549;DHT22;35450;44.518;7.466;2023-12-20T16:02:31;10.20;82.50
49549;DHT22;35450;44.518;7.466;2023-12-20T16:05:35;10.00;81.70
49549;DHT22;35450;44.518;7.466;2023-12-20T16:08:42;10.00;81.70
49549;DHT22;35450;44.518;7.466;2023-12-20T16:11:47;10.00;82.20
49549;DHT22;35450;44.518;7.466;2023-12-20T16:14:52;9.90;82.90
49549;DHT22;35450;44.518;7.466;2023-12-20T16:17:55;9.90;83.70
49549;DHT22;35450;44.518;7.466;2023-12-20T16:21:00;9.90;83.50
49549;DHT22;35450;44.518;7.466;2023-12-20T16:24:05;9.90;84.60
49549;DHT22;35450;44.518;7.466;2023-12-20T16:27:12;10.00;82.20
49549;DHT22;35450;44.518;7.466;2023-12-20T16:30:20;9.90;81.10
49549;DHT22;35450;44.518;7.466;2023-12-20T16:33:24;9.90;80.50
49549;DHT22;35450;44.518;7.466;2023-12-20T16:36:49;9.90;79.90
49549;DHT22;35450;44.518;7.466;2023-12-20T16:39:55;9.80;79.90
49549;DHT22;35450;44.518;7.466;2023-12-20T16:42:59;9.80;80.90
49549;DHT22;35450;44.518;7.466;2023-12-20T16:46:04;9.80;81.50
49549;DHT22;35450;44.518;7.466;2023-12-20T16:49:10;9.80;81.70
49549;DHT22;35450;44.518;7.466;2023-12-20T16:52:15;9.70;82.00
49549;DHT22;35450;44.518;7.466;2023-12-20T16:55:20;9.70;81.20
49549;DHT22;35450;44.518;7.466;2023-12-20T16:58:24;9.60;80.30
49549;DHT22;35450;44.518;7.466;2023-12-20T17:01:28;9.60;80.90
49549;DHT22;35450;44.518;7.466;2023-12-20T17:04:33;9.50;81.60
49549;DHT22;35450;44.518;7.466;2023-12-20T17:07:37;9.40;82.40
49549;DHT22;35450;44.518;7.466;2023-12-20T17:10:41;9.10;82.00
49549;DHT22;35450;44.518;7.466;2023-12-20T17:13:48;9.00;81.30
49549;DHT22;35450;44.518;7.466;2023-12-20T17:16:52;9.10;80.60
49549;DHT22;35450;44.518;7.466;2023-12-20T17:19:56;9.00;82.30
49549;DHT22;35450;44.518;7.466;2023-12-20T17:23:00;9.10;82.80
49549;DHT22;35450;44.518;7.466;2023-12-20T17:26:04;9.10;82.10
49549;DHT22;35450;44.518;7.466;2023-12-20T17:29:08;9.10;81.70
49549;DHT22;35450;44.518;7.466;2023-12-20T17:32:12;9.20;80.80
49549;DHT22;35450;44.518;7.466;2023-12-20T17:35:16;9.20;79.20
49549;DHT22;35450;44.518;7.466;2023-12-20T17:38:21;9.30;80.10
49549;DHT22;35450;44.518;7.466;2023-12-20T17:41:25;9.20;79.20
49549;DHT22;35450;44.518;7.466;2023-12-20T17:44:47;9.20;75.20
49549;DHT22;35450;44.518;7.466;2023-12-20T17:47:53;9.20;75.50
49549;DHT22;35450;44.518;7.466;2023-12-20T17:51:00;9.30;74.90
49549;DHT22;35450;44.518;7.466;2023-12-20T17:54:05;9.30;74.30
49549;DHT22;35450;44.518;7.466;2023-12-20T17:57:10;9.30;74.40
49549;DHT22;35450;44.518;7.466;2023-12-20T18:00:23;9.40;74.10
49549;DHT22;35450;44.518;7.466;2023-12-20T18:03:28;9.40;74.10
49549;DHT22;35450;44.518;7.466;2023-12-20T18:06:32;9.40;71.80
49549;DHT22;35450;44.518;7.466;2023-12-20T18:09:37;9.60;70.80
49549;DHT22;35450;44.518;7.466;2023-12-20T18:12:41;9.60;71.50
49549;DHT22;35450;44.518;7.466;2023-12-20T18:15:45;9.60;72.60
49549;DHT22;35450;44.518;7.466;2023-12-20T18:18:49;9.50;73.10
49549;DHT22;35450;44.518;7.466;2023-12-20T18:21:54;9.60;71.60
49549;DHT22;35450;44.518;7.466;2023-12-20T18:24:59;9.50;71.50
49549;DHT22;35450;44.518;7.466;2023-12-20T18:28:03;9.60;71.40
49549;DHT22;35450;44.518;7.466;2023-12-20T18:31:08;9.60;71.40
49549;DHT22;35450;44.518;7.466;2023-12-20T18:34:12;9.50;71.50
49549;DHT22;35450;44.518;7.466;2023-12-20T18:37:16;9.50;71.20
49549;DHT22;35450;44.518;7.466;2023-12-20T18:40:21;9.60;71.80
49549;DHT22;35450;44.518;7.466;2023-12-20T18:43:25;9.50;73.40
49549;DHT22;35450;44.518;7.466;2023-12-20T18:46:29;9.30;74.60
49549;DHT22;35450;44.518;7.466;2023-12-20T18:49:33;9.30;74.40
49549;DHT22;35450;44.518;7.466;2023-12-20T18:52:38;8.80;75.00
49549;DHT22;35450;44.518;7.466;2023-12-20T18:55:42;9.00;73.60
49549;DHT22;35450;44.518;7.466;2023-12-20T18:58:46;9.10;72.60
49549;DHT22;35450;44.518;7.466;2023-12-20T19:01:52;9.10;73.10
49549;DHT22;35450;44.518;7.466;2023-12-20T19:04:57;9.20;71.70
49549;DHT22;35450;44.518;7.466;2023-12-20T19:08:02;9.20;71.50
49549;DHT22;35450;44.518;7.466;2023-12-20T19:11:07;9.30;71.40
49549;DHT22;35450;44.518;7.466;2023-12-20T19:14:11;9.40;71.20
49549;DHT22;35450;44.518;7.466;2023-12-20T19:17:17;9.30;71.40
49549;DHT22;35450;44.518;7.466;2023-12-20T19:20:21;9.30;72.00
49549;DHT22;35450;44.518;7.466;2023-12-20T19:23:25;9.20;71.70
49549;DHT22;35450;44.518;7.466;2023-12-20T19:26:31;9.30;71.60
49549;DHT22;35450;44.518;7.466;2023-12-20T19:29:35;9.30;71.40
49549;DHT22;35450;44.518;7.466;2023-12-20T19:32:39;9.40;71.60
49549;DHT22;35450;44.518;7.466;2023-12-20T19:35:43;9.30;71.90
49549;DHT22;35450;44.518;7.466;2023-12-20T19:38:47;9.30;72.40
49549;DHT22;35450;44.518;7.466;2023-12-20T19:41:52;9.30;71.30
49549;DHT22;35450;44.518;7.466;2023-12-20T19:44:56;9.30;71.80
49549;DHT22;35450;44.518;7.466;2023-12-20T19:47:59;9.40;71.60
49549;DHT22;35450;44.518;7.466;2023-12-20T19:51:04;9.50;71.20
49549;DHT22;35450;44.518;7.466;2023-12-20T19:54:08;9.40;70.80
49549;DHT22;35450;44.518;7.466;2023-12-20T19:57:12;9.40;70.60
49549;DHT22;35450;44.518;7.466;2023-12-20T20:00:16;9.30;71.10
49549;DHT22;35450;44.518;7.466;2023-12-20T20:03:20;9.30;72.70
49549;DHT22;35450;44.518;7.466;2023-12-20T20:06:26;9.20;71.80
49549;DHT22;35450;44.518;7.466;2023-12-20T20:09:30;9.30;70.50
49549;DHT22;35450;44.518;7.466;2023-12-20T20:12:33;9.30;71.20
49549;DHT22;35450;44.518;7.466;2023-12-20T20:15:38;9.30;71.20
49549;DHT22;35450;44.518;7.466;2023-12-20T20:18:42;9.50;70.60
49549;DHT22;35450;44.518;7.466;2023-12-20T20:21:46;9.40;70.60
49549;DHT22;35450;44.518;7.466;2023-12-20T20:24:50;9.30;70.80
49549;DHT22;35450;44.518;7.466;2023-12-20T20:27:54;9.40;71.50
49549;DHT22;35450;44.518;7.466;2023-12-20T20:30:58;9.40;71.50
49549;DHT22;35450;44.518;7.466;2023-12-20T20:34:02;9.30;71.20
49549;DHT22;35450;44.518;7.466;2023-12-20T20:37:06;9.30;71.00
49549;DHT22;35450;44.518;7.466;2023-12-20T20:40:10;9.10;72.30
49549;DHT22;35450;44.518;7.466;2023-12-20T20:43:17;9.00;72.50
49549;DHT22;35450;44.518;7.466;2023-12-20T20:46:22;9.00;71.90
49549;DHT22;35450;44.518;7.466;2023-12-20T20:49:30;9.10;71.70
49549;DHT22;35450;44.518;7.466;2023-12-20T20:52:34;9.20;71.60
49549;DHT22;35450;44.518;7.466;2023-12-20T20:55:38;9.10;72.10
49549;DHT22;35450;44.518;7.466;2023-12-20T20:58:42;9.10;71.30
49549;DHT22;35450;44.518;7.466;2023-12-20T21:01:46;9.20;70.30
49549;DHT22;35450;44.518;7.466;2023-12-20T21:04:50;9.20;71.30
49549;DHT22;35450;44.518;7.466;2023-12-20T21:07:54;9.20;70.60
49549;DHT22;35450;44.518;7.466;2023-12-20T21:10:58;9.20;71.00
49549;DHT22;35450;44.518;7.466;2023-12-20T21:14:02;9.10;71.10
49549;DHT22;35450;44.518;7.466;2023-12-20T21:17:07;9.20;70.40
49549;DHT22;35450;44.518;7.466;2023-12-20T21:20:12;9.10;71.20
49549;DHT22;35450;44.518;7.466;2023-12-20T21:23:16;9.10;71.70
49549;DHT22;35450;44.518;7.466;2023-12-20T21:26:20;8.70;73.10
49549;DHT22;35450;44.518;7.466;2023-12-20T21:29:24;8.80;72.00
49549;DHT22;35450;44.518;7.466;2023-12-20T21:32:28;8.90;72.10
49549;DHT22;35450;44.518;7.466;2023-12-20T21:35:32;8.80;72.20
49549;DHT22;35450;44.518;7.466;2023-12-20T21:38:36;8.70;72.30
49549;DHT22;35450;44.518;7.466;2023-12-20T21:41:40;8.70;71.50
49549;DHT22;35450;44.518;7.466;2023-12-20T21:44:44;8.80;70.90
49549;DHT22;35450;44.518;7.466;2023-12-20T21:47:48;8.90;70.70
49549;DHT22;35450;44.518;7.466;2023-12-20T21:50:52;9.00;70.00
49549;DHT22;35450;44.518;7.466;2023-12-20T21:53:56;9.10;70.00
49549;DHT22;35450;44.518;7.466;2023-12-20T21:57:04;9.10;69.70
49549;DHT22;35450;44.518;7.466;2023-12-20T22:00:08;9.20;69.70
49549;DHT22;35450;44.518;7.466;2023-12-20T22:03:13;9.00;71.40
49549;DHT22;35450;44.518;7.466;2023-12-20T22:06:17;9.00;70.80
49549;DHT22;35450;44.518;7.466;2023-12-20T22:09:21;8.90;71.00
49549;DHT22;35450;44.518;7.466;2023-12-20T22:12:25;8.90;70.50
49549;DHT22;35450;44.518;7.466;2023-12-20T22:15:29;9.00;70.20
49549;DHT22;35450;44.518;7.466;2023-12-20T22:18:33;8.90;70.00
49549;DHT22;35450;44.518;7.466;2023-12-20T22:21:37;8.90;69.60
49549;DHT22;35450;44.518;7.466;2023-12-20T22:24:42;8.90;70.00
49549;DHT22;35450;44.518;7.466;2023-12-20T22:27:47;9.00;69.80
49549;DHT22;35450;44.518;7.466;2023-12-20T22:30:51;9.00;69.20
49549;DHT22;35450;44.518;7.466;2023-12-20T22:33:56;9.00;70.10
49549;DHT22;35450;44.518;7.466;2023-12-20T22:37:00;8.90;70.50
49549;DHT22;35450;44.518;7.466;2023-12-20T22:40:04;9.00;69.70
49549;DHT22;35450;44.518;7.466;2023-12-20T22:43:08;8.80;70.90
49549;DHT22;35450;44.518;7.466;2023-12-20T22:46:12;8.90;70.90
49549;DHT22;35450;44.518;7.466;2023-12-20T22:49:16;8.80;70.90
49549;DHT22;35450;44.518;7.466;2023-12-20T22:52:20;8.70;70.70
49549;DHT22;35450;44.518;7.466;2023-12-20T22:55:27;8.70;70.60
49549;DHT22;35450;44.518;7.466;2023-12-20T22:58:31;8.70;70.30
49549;DHT22;35450;44.518;7.466;2023-12-20T23:01:35;8.70;69.80
49549;DHT22;35450;44.518;7.466;2023-12-20T23:04:39;8.80;68.70
49549;DHT22;35450;44.518;7.466;2023-12-20T23:07:44;8.90;68.40
49549;DHT22;35450;44.518;7.466;2023-12-20T23:10:48;9.00;67.60
49549;DHT22;35450;44.518;7.466;2023-12-20T23:13:52;9.00;67.20
49549;DHT22;35450;44.518;7.466;2023-12-20T23:16:56;9.10;66.50
49549;DHT22;35450;44.518;7.466;2023-12-20T23:20:00;9.10;67.20
49549;DHT22;35450;44.518;7.466;2023-12-20T23:23:04;9.00;68.00
49549;DHT22;35450;44.518;7.466;2023-12-20T23:26:08;8.90;68.40
49549;DHT22;35450;44.518;7.466;2023-12-20T23:29:12;8.90;69.30
49549;DHT22;35450;44.518;7.466;2023-12-20T23:32:16;8.70;69.90
49549;DHT22;35450;44.518;7.466;2023-12-20T23:35:20;8.70;70.30
49549;DHT22;35450;44.518;7.466;2023-12-20T23:38:24;8.60;70.20
49549;DHT22;35450;44.518;7.466;2023-12-20T23:41:28;8.50;70.70
49549;DHT22;35450;44.518;7.466;2023-12-20T23:44:32;8.40;70.30
49549;DHT22;35450;44.518;7.466;2023-12-20T23:47:37;8.40;70.10
49549;DHT22;35450;44.518;7.466;2023-12-20T23:50:40;8.40;70.40
49549;DHT22;35450;44.518;7.466;2023-12-20T23:53:45;8.40;70.40
49549;DHT22;35450;44.518;7.466;2023-12-20T23:56:48;8.50;68.70
49549;DHT22;35450;44.518;7.466;2023-12-20T23:59:52;8.50;68.90
